sensor_id;sensor_type;location;lat;lon;timestamp;P1;durP1;ratioP1;P2;durP2;ratioP2
29314;SDS011;16320;53.954;9.506;2022-12-22T00:00:23;177.32;;;50.50;;
29314;SDS011;16320;53.954;9.506;2022-12-22T00:03:46;187.52;;;51.40;;
29314;SDS011;16320;53.954;9.506;2022-12-22T00:07:20;139.02;;;38.63;;
29314;SDS011;16320;53.954;9.506;2022-12-22T00:10:44;184.63;;;52.67;;
29314;SDS011;16320;53.954;9.506;2022-12-22T00:14:09;207.60;;;53.47;;
29314;SDS011;16320;53.954;9.506;2022-12-22T00:17:35;207.43;;;56.73;;
29314;SDS011;16320;53.954;9.506;2022-12-22T00:21:15;199.93;;;55.85;;
29314;SDS011;16320;53.954;9.506;2022-12-22T00:24:41;203.77;;;57.05;;
29314;SDS011;16320;53.954;9.506;2022-12-22T00:28:09;201.25;;;57.13;;
29314;SDS011;16320;53.954;9.506;2022-12-22T00:31:41;198.13;;;57.85;;
29314;SDS011;16320;53.954;9.506;2022-12-22T00:35:20;216.73;;;58.03;;
29314;SDS011;16320;53.954;9.506;2022-12-22T00:38:54;205.70;;;60.00;;
29314;SDS011;16320;53.954;9.506;2022-12-22T00:42:18;221.63;;;59.83;;
29314;SDS011;16320;53.954;9.506;2022-12-22T00:45:43;210.95;;;58.47;;
29314;SDS011;16320;53.954;9.506;2022-12-22T00:49:08;217.57;;;57.28;;
29314;SDS011;16320;53.954;9.506;2022-12-22T00:52:33;219.52;;;59.22;;
29314;SDS011;16320;53.954;9.506;2022-12-22T00:56:36;229.98;;;60.65;;
29314;SDS011;16320;53.954;9.506;2022-12-22T00:59:59;223.02;;;61.17;;
29314;SDS011;16320;53.954;9.506;2022-12-22T01:03:36;214.80;;;56.70;;
29314;SDS011;16320;53.954;9.506;2022-12-22T01:07:03;213.07;;;59.47;;
29314;SDS011;16320;53.954;9.506;2022-12-22T01:10:34;232.68;;;62.28;;
29314;SDS011;16320;53.954;9.506;2022-12-22T01:14:00;221.10;;;59.50;;
29314;SDS011;16320;53.954;9.506;2022-12-22T01:17:43;208.73;;;59.50;;
29314;SDS011;16320;53.954;9.506;2022-12-22T01:21:15;223.32;;;59.35;;
29314;SDS011;16320;53.954;9.506;2022-12-22T01:24:54;225.98;;;59.70;;
29314;SDS011;16320;53.954;9.506;2022-12-22T01:28:41;239.13;;;61.25;;
29314;SDS011;16320;53.954;9.506;2022-12-22T01:32:11;232.15;;;60.08;;
29314;SDS011;16320;53.954;9.506;2022-12-22T01:35:59;235.40;;;60.33;;
29314;SDS011;16320;53.954;9.506;2022-12-22T01:39:31;218.68;;;57.30;;
29314;SDS011;16320;53.954;9.506;2022-12-22T01:51:33;227.48;;;56.08;;
29314;SDS011;16320;53.954;9.506;2022-12-22T01:55:14;219.68;;;56.00;;
29314;SDS011;16320;53.954;9.506;2022-12-22T01:59:00;221.35;;;57.00;;
29314;SDS011;16320;53.954;9.506;2022-12-22T02:02:34;220.77;;;56.25;;
29314;SDS011;16320;53.954;9.506;2022-12-22T02:06:30;217.70;;;56.15;;
29314;SDS011;16320;53.954;9.506;2022-12-22T02:18:18;232.43;;;56.40;;
29314;SDS011;16320;53.954;9.506;2022-12-22T02:21:59;218.70;;;54.25;;
29314;SDS011;16320;53.954;9.506;2022-12-22T02:29:54;229.82;;;55.42;;
29314;SDS011;16320;53.954;9.506;2022-12-22T02:33:32;240.73;;;54.75;;
29314;SDS011;16320;53.954;9.506;2022-12-22T02:41:45;260.38;;;53.25;;
29314;SDS011;16320;53.954;9.506;2022-12-22T02:45:38;258.92;;;55.10;;
29314;SDS011;16320;53.954;9.506;2022-12-22T02:49:59;237.85;;;53.65;;
29314;SDS011;16320;53.954;9.506;2022-12-22T02:53:51;256.08;;;53.30;;
29314;SDS011;16320;53.954;9.506;2022-12-22T02:57:16;241.88;;;54.65;;
29314;SDS011;16320;53.954;9.506;2022-12-22T03:00:40;255.63;;;52.85;;
29314;SDS011;16320;53.954;9.506;2022-12-22T03:04:26;243.07;;;52.08;;
29314;SDS011;16320;53.954;9.506;2022-12-22T03:07:52;229.85;;;51.80;;
29314;SDS011;16320;53.954;9.506;2022-12-22T03:11:27;237.85;;;51.08;;
29314;SDS011;16320;53.954;9.506;2022-12-22T03:14:55;237.80;;;49.63;;
29314;SDS011;16320;53.954;9.506;2022-12-22T03:18:20;228.88;;;50.03;;
29314;SDS011;16320;53.954;9.506;2022-12-22T03:21:49;217.40;;;47.88;;
29314;SDS011;16320;53.954;9.506;2022-12-22T03:25:16;226.32;;;50.58;;
29314;SDS011;16320;53.954;9.506;2022-12-22T03:28:42;236.57;;;48.70;;
29314;SDS011;16320;53.954;9.506;2022-12-22T03:31:47;228.00;;;48.80;;
29314;SDS011;16320;53.954;9.506;2022-12-22T03:35:12;210.13;;;46.05;;
29314;SDS011;16320;53.954;9.506;2022-12-22T03:38:42;218.63;;;47.67;;
29314;SDS011;16320;53.954;9.506;2022-12-22T03:41:52;213.30;;;48.90;;
29314;SDS011;16320;53.954;9.506;2022-12-22T03:45:15;226.02;;;47.67;;
29314;SDS011;16320;53.954;9.506;2022-12-22T03:48:38;225.70;;;50.00;;
29314;SDS011;16320;53.954;9.506;2022-12-22T03:51:55;200.10;;;46.92;;
29314;SDS011;16320;53.954;9.506;2022-12-22T03:55:06;212.25;;;47.92;;
29314;SDS011;16320;53.954;9.506;2022-12-22T03:58:17;211.18;;;49.70;;
29314;SDS011;16320;53.954;9.506;2022-12-22T04:01:25;194.43;;;47.42;;
29314;SDS011;16320;53.954;9.506;2022-12-22T04:04:45;208.20;;;47.38;;
29314;SDS011;16320;53.954;9.506;2022-12-22T04:07:55;208.05;;;44.80;;
29314;SDS011;16320;53.954;9.506;2022-12-22T04:11:13;209.48;;;45.08;;
29314;SDS011;16320;53.954;9.506;2022-12-22T04:14:54;193.98;;;45.38;;
29314;SDS011;16320;53.954;9.506;2022-12-22T04:17:59;189.52;;;43.88;;
29314;SDS011;16320;53.954;9.506;2022-12-22T04:21:13;183.25;;;44.33;;
29314;SDS011;16320;53.954;9.506;2022-12-22T04:24:31;179.73;;;43.05;;
29314;SDS011;16320;53.954;9.506;2022-12-22T04:27:37;189.63;;;44.67;;
29314;SDS011;16320;53.954;9.506;2022-12-22T04:30:47;189.95;;;44.25;;
29314;SDS011;16320;53.954;9.506;2022-12-22T04:34:31;182.65;;;40.25;;
29314;SDS011;16320;53.954;9.506;2022-12-22T04:38:04;176.48;;;43.10;;
29314;SDS011;16320;53.954;9.506;2022-12-22T04:41:27;180.35;;;42.80;;
29314;SDS011;16320;53.954;9.506;2022-12-22T04:44:50;172.98;;;41.58;;
29314;SDS011;16320;53.954;9.506;2022-12-22T04:48:14;183.63;;;42.22;;
29314;SDS011;16320;53.954;9.506;2022-12-22T04:51:23;198.80;;;44.40;;
29314;SDS011;16320;53.954;9.506;2022-12-22T04:54:58;187.25;;;44.30;;
29314;SDS011;16320;53.954;9.506;2022-12-22T04:58:03;195.68;;;42.42;;
29314;SDS011;16320;53.954;9.506;2022-12-22T05:01:17;174.30;;;40.58;;
29314;SDS011;16320;53.954;9.506;2022-12-22T05:04:52;166.45;;;40.13;;
29314;SDS011;16320;53.954;9.506;2022-12-22T05:08:00;198.45;;;42.70;;
29314;SDS011;16320;53.954;9.506;2022-12-22T05:11:22;190.30;;;43.47;;
29314;SDS011;16320;53.954;9.506;2022-12-22T05:14:29;198.00;;;41.80;;
29314;SDS011;16320;53.954;9.506;2022-12-22T05:17:33;186.85;;;42.90;;
29314;SDS011;16320;53.954;9.506;2022-12-22T05:20:44;195.90;;;45.47;;
29314;SDS011;16320;53.954;9.506;2022-12-22T05:23:59;225.02;;;46.03;;
29314;SDS011;16320;53.954;9.506;2022-12-22T05:27:07;203.30;;;44.25;;
29314;SDS011;16320;53.954;9.506;2022-12-22T05:30:15;189.00;;;42.67;;
29314;SDS011;16320;53.954;9.506;2022-12-22T05:33:29;175.85;;;40.13;;
29314;SDS011;16320;53.954;9.506;2022-12-22T05:36:34;177.18;;;42.08;;
29314;SDS011;16320;53.954;9.506;2022-12-22T05:39:38;176.30;;;41.55;;
29314;SDS011;16320;53.954;9.506;2022-12-22T05:42:43;205.63;;;40.60;;
29314;SDS011;16320;53.954;9.506;2022-12-22T05:45:48;201.30;;;43.03;;
29314;SDS011;16320;53.954;9.506;2022-12-22T05:48:53;187.75;;;42.13;;
29314;SDS011;16320;53.954;9.506;2022-12-22T05:52:01;199.13;;;45.10;;
29314;SDS011;16320;53.954;9.506;2022-12-22T05:55:08;202.85;;;46.00;;
29314;SDS011;16320;53.954;9.506;2022-12-22T06:02:02;208.27;;;49.30;;
29314;SDS011;16320;53.954;9.506;2022-12-22T06:06:06;202.07;;;44.70;;
29314;SDS011;16320;53.954;9.506;2022-12-22T06:09:27;259.55;;;43.88;;
29314;SDS011;16320;53.954;9.506;2022-12-22T06:12:42;240.35;;;44.17;;
29314;SDS011;16320;53.954;9.506;2022-12-22T06:15:48;221.35;;;44.88;;
29314;SDS011;16320;53.954;9.506;2022-12-22T06:18:56;234.98;;;44.90;;
29314;SDS011;16320;53.954;9.506;2022-12-22T06:22:01;240.63;;;45.50;;
29314;SDS011;16320;53.954;9.506;2022-12-22T08:21:57;573.65;;;64.75;;
29314;SDS011;16320;53.954;9.506;2022-12-22T08:30:33;513.25;;;57.20;;
29314;SDS011;16320;53.954;9.506;2022-12-22T08:34:54;499.00;;;56.65;;
29314;SDS011;16320;53.954;9.506;2022-12-22T08:39:11;408.65;;;56.90;;
29314;SDS011;16320;53.954;9.506;2022-12-22T08:46:11;361.85;;;54.50;;
29314;SDS011;16320;53.954;9.506;2022-12-22T08:49:24;345.25;;;51.55;;
29314;SDS011;16320;53.954;9.506;2022-12-22T08:52:33;405.88;;;53.22;;
29314;SDS011;16320;53.954;9.506;2022-12-22T08:55:50;370.27;;;54.47;;
29314;SDS011;16320;53.954;9.506;2022-12-22T08:59:02;395.88;;;52.42;;
29314;SDS011;16320;53.954;9.506;2022-12-22T09:02:08;346.80;;;52.03;;
29314;SDS011;16320;53.954;9.506;2022-12-22T09:05:13;463.08;;;58.40;;
29314;SDS011;16320;53.954;9.506;2022-12-22T09:08:21;422.42;;;54.47;;
29314;SDS011;16320;53.954;9.506;2022-12-22T09:11:26;423.42;;;55.45;;
29314;SDS011;16320;53.954;9.506;2022-12-22T09:14:32;283.65;;;54.83;;
29314;SDS011;16320;53.954;9.506;2022-12-22T09:17:36;466.92;;;78.60;;
29314;SDS011;16320;53.954;9.506;2022-12-22T09:20:41;346.60;;;51.85;;
29314;SDS011;16320;53.954;9.506;2022-12-22T09:23:49;297.30;;;54.10;;
29314;SDS011;16320;53.954;9.506;2022-12-22T09:27:06;269.70;;;47.35;;
29314;SDS011;16320;53.954;9.506;2022-12-22T09:30:26;335.23;;;49.63;;
29314;SDS011;16320;53.954;9.506;2022-12-22T09:36:38;263.63;;;58.13;;
29314;SDS011;16320;53.954;9.506;2022-12-22T09:39:44;230.95;;;43.78;;
29314;SDS011;16320;53.954;9.506;2022-12-22T09:42:50;227.68;;;46.83;;
29314;SDS011;16320;53.954;9.506;2022-12-22T09:46:28;234.82;;;43.65;;
29314;SDS011;16320;53.954;9.506;2022-12-22T09:49:38;313.92;;;63.20;;
29314;SDS011;16320;53.954;9.506;2022-12-22T09:52:45;260.70;;;45.08;;
29314;SDS011;16320;53.954;9.506;2022-12-22T09:55:56;266.40;;;61.45;;
29314;SDS011;16320;53.954;9.506;2022-12-22T09:59:04;263.45;;;47.45;;
29314;SDS011;16320;53.954;9.506;2022-12-22T10:02:18;228.77;;;43.03;;
29314;SDS011;16320;53.954;9.506;2022-12-22T10:05:39;241.00;;;52.47;;
29314;SDS011;16320;53.954;9.506;2022-12-22T10:09:21;261.88;;;65.28;;
29314;SDS011;16320;53.954;9.506;2022-12-22T10:12:49;231.15;;;54.38;;
29314;SDS011;16320;53.954;9.506;2022-12-22T10:15:57;251.82;;;57.53;;
29314;SDS011;16320;53.954;9.506;2022-12-22T10:19:09;236.40;;;47.55;;
29314;SDS011;16320;53.954;9.506;2022-12-22T10:29:05;212.43;;;43.88;;
29314;SDS011;16320;53.954;9.506;2022-12-22T10:32:15;220.82;;;44.63;;
29314;SDS011;16320;53.954;9.506;2022-12-22T10:35:24;219.48;;;43.83;;
29314;SDS011;16320;53.954;9.506;2022-12-22T10:38:29;193.40;;;41.80;;
29314;SDS011;16320;53.954;9.506;2022-12-22T10:41:44;193.25;;;43.60;;
29314;SDS011;16320;53.954;9.506;2022-12-22T10:44:52;185.38;;;50.60;;
29314;SDS011;16320;53.954;9.506;2022-12-22T10:47:56;196.07;;;45.70;;
29314;SDS011;16320;53.954;9.506;2022-12-22T10:51:01;181.52;;;40.70;;
29314;SDS011;16320;53.954;9.506;2022-12-22T10:54:22;186.48;;;42.40;;
29314;SDS011;16320;53.954;9.506;2022-12-22T10:57:35;150.25;;;37.67;;
29314;SDS011;16320;53.954;9.506;2022-12-22T11:00:40;156.40;;;38.92;;
29314;SDS011;16320;53.954;9.506;2022-12-22T11:03:44;147.82;;;36.45;;
29314;SDS011;16320;53.954;9.506;2022-12-22T11:06:49;133.52;;;33.95;;
29314;SDS011;16320;53.954;9.506;2022-12-22T11:09:56;123.35;;;33.22;;
29314;SDS011;16320;53.954;9.506;2022-12-22T11:27:12;80.60;;;27.73;;
29314;SDS011;16320;53.954;9.506;2022-12-22T11:51:28;78.90;;;26.92;;
29314;SDS011;16320;53.954;9.506;2022-12-22T12:05:39;61.78;;;22.60;;
29314;SDS011;16320;53.954;9.506;2022-12-22T12:16:09;91.00;;;33.65;;
29314;SDS011;16320;53.954;9.506;2022-12-22T12:30:16;59.92;;;24.58;;
29314;SDS011;16320;53.954;9.506;2022-12-22T12:36:57;57.90;;;23.23;;
29314;SDS011;16320;53.954;9.506;2022-12-22T12:40:26;68.35;;;21.80;;
29314;SDS011;16320;53.954;9.506;2022-12-22T12:43:46;53.85;;;23.80;;
29314;SDS011;16320;53.954;9.506;2022-12-22T12:46:55;60.05;;;21.35;;
29314;SDS011;16320;53.954;9.506;2022-12-22T12:50:32;57.67;;;22.80;;
29314;SDS011;16320;53.954;9.506;2022-12-22T12:53:37;40.83;;;18.00;;
29314;SDS011;16320;53.954;9.506;2022-12-22T12:57:44;52.67;;;18.77;;
29314;SDS011;16320;53.954;9.506;2022-12-22T13:00:51;48.55;;;17.77;;
29314;SDS011;16320;53.954;9.506;2022-12-22T13:04:01;53.63;;;18.65;;
29314;SDS011;16320;53.954;9.506;2022-12-22T13:07:08;41.83;;;16.05;;
29314;SDS011;16320;53.954;9.506;2022-12-22T13:10:19;39.42;;;17.33;;
29314;SDS011;16320;53.954;9.506;2022-12-22T13:16:33;39.65;;;16.98;;
29314;SDS011;16320;53.954;9.506;2022-12-22T13:19:42;38.65;;;15.90;;
29314;SDS011;16320;53.954;9.506;2022-12-22T13:22:51;37.50;;;16.50;;
29314;SDS011;16320;53.954;9.506;2022-12-22T13:25:58;49.78;;;17.70;;
29314;SDS011;16320;53.954;9.506;2022-12-22T13:29:15;57.53;;;19.65;;
29314;SDS011;16320;53.954;9.506;2022-12-22T13:32:38;39.35;;;16.05;;
29314;SDS011;16320;53.954;9.506;2022-12-22T13:35:43;41.00;;;13.90;;
29314;SDS011;16320;53.954;9.506;2022-12-22T13:39:03;40.83;;;14.90;;
29314;SDS011;16320;53.954;9.506;2022-12-22T13:42:14;36.33;;;12.73;;
29314;SDS011;16320;53.954;9.506;2022-12-22T13:51:52;34.67;;;12.80;;
29314;SDS011;16320;53.954;9.506;2022-12-22T13:55:08;36.05;;;11.73;;
29314;SDS011;16320;53.954;9.506;2022-12-22T13:58:23;31.63;;;12.30;;
29314;SDS011;16320;53.954;9.506;2022-12-22T14:01:34;31.00;;;11.88;;
29314;SDS011;16320;53.954;9.506;2022-12-22T14:04:40;27.92;;;11.23;;
29314;SDS011;16320;53.954;9.506;2022-12-22T14:07:59;48.67;;;16.58;;
29314;SDS011;16320;53.954;9.506;2022-12-22T14:11:09;42.45;;;18.38;;
29314;SDS011;16320;53.954;9.506;2022-12-22T14:14:21;33.35;;;12.15;;
29314;SDS011;16320;53.954;9.506;2022-12-22T14:17:35;36.42;;;13.35;;
29314;SDS011;16320;53.954;9.506;2022-12-22T14:20:52;33.83;;;12.82;;
29314;SDS011;16320;53.954;9.506;2022-12-22T14:23:58;32.97;;;11.65;;
29314;SDS011;16320;53.954;9.506;2022-12-22T14:27:03;35.35;;;11.13;;
29314;SDS011;16320;53.954;9.506;2022-12-22T14:30:17;38.33;;;13.07;;
29314;SDS011;16320;53.954;9.506;2022-12-22T14:33:28;26.50;;;10.98;;
29314;SDS011;16320;53.954;9.506;2022-12-22T14:36:39;30.63;;;12.90;;
29314;SDS011;16320;53.954;9.506;2022-12-22T14:39:53;42.15;;;11.82;;
29314;SDS011;16320;53.954;9.506;2022-12-22T14:42:59;31.13;;;12.52;;
29314;SDS011;16320;53.954;9.506;2022-12-22T14:46:07;32.38;;;13.32;;
29314;SDS011;16320;53.954;9.506;2022-12-22T14:49:13;30.52;;;13.65;;
29314;SDS011;16320;53.954;9.506;2022-12-22T14:55:54;38.15;;;13.73;;
29314;SDS011;16320;53.954;9.506;2022-12-22T14:59:09;28.27;;;12.85;;
29314;SDS011;16320;53.954;9.506;2022-12-22T15:02:26;31.55;;;12.70;;
29314;SDS011;16320;53.954;9.506;2022-12-22T15:05:43;39.75;;;11.88;;
29314;SDS011;16320;53.954;9.506;2022-12-22T15:08:48;29.98;;;13.02;;
29314;SDS011;16320;53.954;9.506;2022-12-22T15:12:01;34.72;;;12.38;;
29314;SDS011;16320;53.954;9.506;2022-12-22T15:15:11;20.13;;;9.48;;
29314;SDS011;16320;53.954;9.506;2022-12-22T15:18:26;30.13;;;14.10;;
29314;SDS011;16320;53.954;9.506;2022-12-22T15:21:31;39.40;;;13.32;;
29314;SDS011;16320;53.954;9.506;2022-12-22T15:24:37;34.17;;;13.02;;
29314;SDS011;16320;53.954;9.506;2022-12-22T15:30:46;42.17;;;14.68;;
29314;SDS011;16320;53.954;9.506;2022-12-22T15:33:51;36.60;;;15.07;;
29314;SDS011;16320;53.954;9.506;2022-12-22T15:36:58;45.80;;;15.15;;
29314;SDS011;16320;53.954;9.506;2022-12-22T15:40:02;47.08;;;16.63;;
29314;SDS011;16320;53.954;9.506;2022-12-22T15:43:15;46.60;;;16.05;;
29314;SDS011;16320;53.954;9.506;2022-12-22T15:46:42;49.08;;;16.42;;
29314;SDS011;16320;53.954;9.506;2022-12-22T15:49:54;46.65;;;16.98;;
29314;SDS011;16320;53.954;9.506;2022-12-22T15:52:58;52.75;;;17.25;;
29314;SDS011;16320;53.954;9.506;2022-12-22T15:56:22;47.05;;;19.08;;
29314;SDS011;16320;53.954;9.506;2022-12-22T15:59:29;50.47;;;18.08;;
29314;SDS011;16320;53.954;9.506;2022-12-22T16:02:34;50.33;;;17.08;;
29314;SDS011;16320;53.954;9.506;2022-12-22T16:05:39;41.38;;;16.67;;
29314;SDS011;16320;53.954;9.506;2022-12-22T16:08:48;45.55;;;16.13;;
29314;SDS011;16320;53.954;9.506;2022-12-22T16:11:56;44.47;;;16.75;;
29314;SDS011;16320;53.954;9.506;2022-12-22T16:15:01;50.00;;;17.17;;
29314;SDS011;16320;53.954;9.506;2022-12-22T16:18:06;46.08;;;15.05;;
29314;SDS011;16320;53.954;9.506;2022-12-22T16:21:16;48.05;;;16.40;;
29314;SDS011;16320;53.954;9.506;2022-12-22T16:24:28;37.50;;;15.43;;
29314;SDS011;16320;53.954;9.506;2022-12-22T16:27:37;42.95;;;15.57;;
29314;SDS011;16320;53.954;9.506;2022-12-22T16:30:41;39.60;;;14.20;;
29314;SDS011;16320;53.954;9.506;2022-12-22T16:33:46;35.22;;;14.13;;
29314;SDS011;16320;53.954;9.506;2022-12-22T16:36:51;49.42;;;15.73;;
29314;SDS011;16320;53.954;9.506;2022-12-22T16:39:55;37.40;;;15.32;;
29314;SDS011;16320;53.954;9.506;2022-12-22T16:43:02;35.10;;;15.38;;
29314;SDS011;16320;53.954;9.506;2022-12-22T16:46:29;45.05;;;16.63;;
29314;SDS011;16320;53.954;9.506;2022-12-22T16:49:33;34.95;;;14.40;;
29314;SDS011;16320;53.954;9.506;2022-12-22T16:52:38;37.15;;;15.52;;
29314;SDS011;16320;53.954;9.506;2022-12-22T16:55:44;39.58;;;14.90;;
29314;SDS011;16320;53.954;9.506;2022-12-22T17:01:53;41.53;;;13.25;;
29314;SDS011;16320;53.954;9.506;2022-12-22T17:04:59;37.50;;;14.75;;
29314;SDS011;16320;53.954;9.506;2022-12-22T17:08:06;42.08;;;14.65;;
29314;SDS011;16320;53.954;9.506;2022-12-22T17:11:23;35.50;;;13.95;;
29314;SDS011;16320;53.954;9.506;2022-12-22T17:14:32;39.42;;;14.68;;
29314;SDS011;16320;53.954;9.506;2022-12-22T17:17:40;54.13;;;16.35;;
29314;SDS011;16320;53.954;9.506;2022-12-22T17:20:45;41.63;;;16.02;;
29314;SDS011;16320;53.954;9.506;2022-12-22T17:23:53;41.83;;;15.00;;
29314;SDS011;16320;53.954;9.506;2022-12-22T17:27:02;37.55;;;14.77;;
29314;SDS011;16320;53.954;9.506;2022-12-22T17:30:13;39.90;;;14.38;;
29314;SDS011;16320;53.954;9.506;2022-12-22T17:33:25;40.65;;;14.55;;
29314;SDS011;16320;53.954;9.506;2022-12-22T17:36:34;32.28;;;14.77;;
29314;SDS011;16320;53.954;9.506;2022-12-22T17:39:40;38.78;;;15.20;;
29314;SDS011;16320;53.954;9.506;2022-12-22T17:42:46;37.20;;;16.45;;
29314;SDS011;16320;53.954;9.506;2022-12-22T17:45:51;40.63;;;15.25;;
29314;SDS011;16320;53.954;9.506;2022-12-22T17:48:56;38.00;;;16.35;;
29314;SDS011;16320;53.954;9.506;2022-12-22T17:52:01;39.70;;;17.23;;
29314;SDS011;16320;53.954;9.506;2022-12-22T17:55:06;53.53;;;18.05;;
29314;SDS011;16320;53.954;9.506;2022-12-22T17:58:45;47.45;;;16.90;;
29314;SDS011;16320;53.954;9.506;2022-12-22T18:01:50;51.20;;;16.70;;
29314;SDS011;16320;53.954;9.506;2022-12-22T18:04:55;47.97;;;17.00;;
29314;SDS011;16320;53.954;9.506;2022-12-22T18:08:04;36.33;;;14.90;;
29314;SDS011;16320;53.954;9.506;2022-12-22T18:11:11;42.90;;;16.20;;
29314;SDS011;16320;53.954;9.506;2022-12-22T18:14:16;36.78;;;14.45;;
29314;SDS011;16320;53.954;9.506;2022-12-22T18:17:25;28.60;;;12.30;;
29314;SDS011;16320;53.954;9.506;2022-12-22T18:20:38;28.80;;;10.65;;
29314;SDS011;16320;53.954;9.506;2022-12-22T18:23:43;23.60;;;8.40;;
29314;SDS011;16320;53.954;9.506;2022-12-22T18:26:53;23.77;;;7.78;;
29314;SDS011;16320;53.954;9.506;2022-12-22T18:29:58;17.60;;;8.40;;
29314;SDS011;16320;53.954;9.506;2022-12-22T18:33:03;22.30;;;7.15;;
29314;SDS011;16320;53.954;9.506;2022-12-22T18:36:18;17.27;;;7.95;;
29314;SDS011;16320;53.954;9.506;2022-12-22T18:39:30;21.60;;;9.00;;
29314;SDS011;16320;53.954;9.506;2022-12-22T18:42:37;28.33;;;10.15;;
29314;SDS011;16320;53.954;9.506;2022-12-22T18:45:42;31.90;;;10.98;;
29314;SDS011;16320;53.954;9.506;2022-12-22T18:48:47;26.30;;;9.32;;
29314;SDS011;16320;53.954;9.506;2022-12-22T18:51:52;23.08;;;11.55;;
29314;SDS011;16320;53.954;9.506;2022-12-22T18:54:56;27.95;;;11.60;;
29314;SDS011;16320;53.954;9.506;2022-12-22T18:58:00;28.40;;;11.90;;
29314;SDS011;16320;53.954;9.506;2022-12-22T19:01:05;29.00;;;13.45;;
29314;SDS011;16320;53.954;9.506;2022-12-22T19:04:15;30.67;;;13.98;;
29314;SDS011;16320;53.954;9.506;2022-12-22T19:07:21;33.90;;;14.98;;
29314;SDS011;16320;53.954;9.506;2022-12-22T19:10:36;32.95;;;14.60;;
29314;SDS011;16320;53.954;9.506;2022-12-22T19:13:45;39.63;;;16.65;;
29314;SDS011;16320;53.954;9.506;2022-12-22T19:16:54;40.90;;;16.45;;
29314;SDS011;16320;53.954;9.506;2022-12-22T19:19:58;45.08;;;18.42;;
29314;SDS011;16320;53.954;9.506;2022-12-22T19:23:03;49.60;;;18.73;;
29314;SDS011;16320;53.954;9.506;2022-12-22T19:26:21;48.25;;;19.85;;
29314;SDS011;16320;53.954;9.506;2022-12-22T19:29:29;56.03;;;19.75;;
29314;SDS011;16320;53.954;9.506;2022-12-22T19:32:40;47.80;;;20.75;;
29314;SDS011;16320;53.954;9.506;2022-12-22T19:35:50;49.33;;;23.67;;
29314;SDS011;16320;53.954;9.506;2022-12-22T19:38:56;65.95;;;26.40;;
29314;SDS011;16320;53.954;9.506;2022-12-22T19:42:10;52.90;;;24.52;;
29314;SDS011;16320;53.954;9.506;2022-12-22T19:45:32;50.55;;;23.48;;
29314;SDS011;16320;53.954;9.506;2022-12-22T19:48:38;58.08;;;22.45;;
29314;SDS011;16320;53.954;9.506;2022-12-22T19:51:43;60.28;;;24.58;;
29314;SDS011;16320;53.954;9.506;2022-12-22T19:54:47;58.63;;;23.63;;
29314;SDS011;16320;53.954;9.506;2022-12-22T19:57:52;61.47;;;24.55;;
29314;SDS011;16320;53.954;9.506;2022-12-22T20:00:57;63.00;;;25.25;;
29314;SDS011;16320;53.954;9.506;2022-12-22T20:04:14;62.85;;;25.20;;
29314;SDS011;16320;53.954;9.506;2022-12-22T20:07:24;70.85;;;28.25;;
29314;SDS011;16320;53.954;9.506;2022-12-22T20:10:33;63.80;;;28.02;;
29314;SDS011;16320;53.954;9.506;2022-12-22T20:13:39;68.47;;;28.48;;
29314;SDS011;16320;53.954;9.506;2022-12-22T20:16:45;66.18;;;28.00;;
29314;SDS011;16320;53.954;9.506;2022-12-22T20:19:49;69.38;;;28.08;;
29314;SDS011;16320;53.954;9.506;2022-12-22T20:22:54;71.43;;;29.00;;
29314;SDS011;16320;53.954;9.506;2022-12-22T20:26:03;60.45;;;28.00;;
29314;SDS011;16320;53.954;9.506;2022-12-22T20:29:16;65.90;;;27.50;;
29314;SDS011;16320;53.954;9.506;2022-12-22T20:32:20;66.05;;;27.73;;
29314;SDS011;16320;53.954;9.506;2022-12-22T20:35:31;72.32;;;27.33;;
29314;SDS011;16320;53.954;9.506;2022-12-22T20:38:36;74.30;;;28.45;;
29314;SDS011;16320;53.954;9.506;2022-12-22T20:41:44;68.97;;;27.45;;
29314;SDS011;16320;53.954;9.506;2022-12-22T20:44:56;83.90;;;30.23;;
29314;SDS011;16320;53.954;9.506;2022-12-22T20:48:09;76.43;;;30.10;;
29314;SDS011;16320;53.954;9.506;2022-12-22T20:51:29;77.57;;;30.20;;
29314;SDS011;16320;53.954;9.506;2022-12-22T20:54:36;90.90;;;34.42;;
29314;SDS011;16320;53.954;9.506;2022-12-22T20:57:42;89.43;;;32.47;;
29314;SDS011;16320;53.954;9.506;2022-12-22T21:00:51;86.55;;;35.17;;
29314;SDS011;16320;53.954;9.506;2022-12-22T21:04:02;98.75;;;35.45;;
29314;SDS011;16320;53.954;9.506;2022-12-22T21:07:19;90.00;;;34.45;;
29314;SDS011;16320;53.954;9.506;2022-12-22T21:10:23;98.70;;;39.15;;
29314;SDS011;16320;53.954;9.506;2022-12-22T21:13:31;91.25;;;38.42;;
29314;SDS011;16320;53.954;9.506;2022-12-22T21:16:35;101.45;;;38.38;;
29314;SDS011;16320;53.954;9.506;2022-12-22T21:19:40;100.75;;;37.42;;
29314;SDS011;16320;53.954;9.506;2022-12-22T21:22:45;91.68;;;36.38;;
29314;SDS011;16320;53.954;9.506;2022-12-22T21:25:50;90.97;;;34.03;;
29314;SDS011;16320;53.954;9.506;2022-12-22T21:28:56;101.53;;;38.22;;
29314;SDS011;16320;53.954;9.506;2022-12-22T21:32:02;91.70;;;35.50;;
29314;SDS011;16320;53.954;9.506;2022-12-22T21:35:11;88.22;;;33.67;;
29314;SDS011;16320;53.954;9.506;2022-12-22T21:38:18;88.30;;;33.63;;
29314;SDS011;16320;53.954;9.506;2022-12-22T21:41:27;94.30;;;33.47;;
29314;SDS011;16320;53.954;9.506;2022-12-22T21:44:51;92.50;;;33.13;;
29314;SDS011;16320;53.954;9.506;2022-12-22T21:47:56;97.00;;;33.20;;
29314;SDS011;16320;53.954;9.506;2022-12-22T21:51:03;82.80;;;31.52;;
29314;SDS011;16320;53.954;9.506;2022-12-22T21:54:09;87.40;;;31.48;;
29314;SDS011;16320;53.954;9.506;2022-12-22T21:57:13;90.90;;;30.23;;
29314;SDS011;16320;53.954;9.506;2022-12-22T22:00:22;90.13;;;32.20;;
29314;SDS011;16320;53.954;9.506;2022-12-22T22:03:28;98.63;;;32.45;;
29314;SDS011;16320;53.954;9.506;2022-12-22T22:06:35;99.60;;;32.88;;
29314;SDS011;16320;53.954;9.506;2022-12-22T22:09:40;98.75;;;32.50;;
29314;SDS011;16320;53.954;9.506;2022-12-22T22:12:45;92.05;;;32.83;;
29314;SDS011;16320;53.954;9.506;2022-12-22T22:15:49;89.90;;;30.45;;
29314;SDS011;16320;53.954;9.506;2022-12-22T22:18:54;102.72;;;32.00;;
29314;SDS011;16320;53.954;9.506;2022-12-22T22:21:58;93.80;;;33.13;;
29314;SDS011;16320;53.954;9.506;2022-12-22T22:25:03;103.70;;;31.63;;
29314;SDS011;16320;53.954;9.506;2022-12-22T22:28:09;103.38;;;31.48;;
29314;SDS011;16320;53.954;9.506;2022-12-22T22:31:14;95.05;;;30.42;;
29314;SDS011;16320;53.954;9.506;2022-12-22T22:34:19;92.00;;;29.92;;
29314;SDS011;16320;53.954;9.506;2022-12-22T22:37:24;88.28;;;30.08;;
29314;SDS011;16320;53.954;9.506;2022-12-22T22:40:28;101.60;;;32.55;;
29314;SDS011;16320;53.954;9.506;2022-12-22T22:43:32;102.40;;;32.25;;
29314;SDS011;16320;53.954;9.506;2022-12-22T22:46:36;89.28;;;31.08;;
29314;SDS011;16320;53.954;9.506;2022-12-22T22:49:41;99.68;;;33.90;;
29314;SDS011;16320;53.954;9.506;2022-12-22T22:52:46;106.18;;;33.35;;
29314;SDS011;16320;53.954;9.506;2022-12-22T22:55:50;103.15;;;31.35;;
29314;SDS011;16320;53.954;9.506;2022-12-22T23:02:00;98.68;;;31.75;;
29314;SDS011;16320;53.954;9.506;2022-12-22T23:05:05;105.30;;;32.60;;